Kieffer E Bailey — WDH4584 — position and weather

sailwx.info

Track history (hours):
 
Tides and Currents Weather Stations Pressure Air Temp Water Temp Dewpoint Dewpoint Depression Visibility Wind Speed Wind Dir Waves Ship Positions

Kieffer E Bailey

Owner: Marquette Transportation Company Gulf-Inland, LLC, Jefferson, LA. More information available from US FCC via Universal Licensing System and Coast Guard Vessel Documentation Center.

Last reported at 2018-May-25 02:59 UTC. Time now 2018-May-25 06:41 UTC.
Position N 28°54' W 095°25'.

Length 25 m; draft 2.9 m.

Type: Tow > 200 m length. MMSI: 367619240.

Date/timePositionNaut miles runAvg speedWind from/ knotsBaromVisibWave heightAir tempDewpointWater temp
2018-May-25 02:59N 28°54' W 095°25'0 0.2
2018-May-25 02:30N 28°54' W 095°25'0 0.0
2018-May-25 01:27N 28°54' W 095°25'0 0.1
2018-May-25 00:55N 28°54' W 095°24'0 0.0
2018-May-25 00:28N 28°54' W 095°24'1 2.0
2018-May-24 23:47N 28°54' W 095°23'1 2.3
2018-May-24 23:29N 28°54' W 095°22'2 3.1
2018-May-24 22:59N 28°54' W 095°24'2 3.3
2018-May-24 22:30N 28°54' W 095°22'2 3.5
2018-May-24 21:56N 28°54' W 095°24'1 1.6
2018-May-24 21:27N 28°54' W 095°24'0 0.4
2018-May-24 20:52N 28°54' W 095°23'1 2.3
2018-May-24 20:27N 28°54' W 095°24'2 4.5
2018-May-24 20:00N 28°54' W 095°22'0 0.1
2018-May-24 19:30N 28°54' W 095°22'0 0.0
2018-May-24 19:00N 28°54' W 095°22'1 2.4
2018-May-24 18:30N 28°55' W 095°21'2 4.7
2018-May-24 18:00N 28°56' W 095°19'2 4.4
2018-May-24 17:30N 28°58' W 095°17'2 4.0
2018-May-24 17:00N 28°59' W 095°16'2 4.6
2018-May-24 16:30N 29°01' W 095°14'2 4.3
2018-May-24 16:00N 29°03' W 095°13'2 4.5
2018-May-24 15:30N 29°05' W 095°12'2 4.6
2018-May-24 15:00N 29°07' W 095°11'1 2.9
2018-May-24 14:30N 29°08' W 095°10'2 3.5
2018-May-24 14:00N 29°09' W 095°08'2 4.8
2018-May-24 13:30N 29°11' W 095°06'21 4.7
2018-May-24 09:00N 29°23' W 094°46'2 3.0
2018-May-24 08:30N 29°24' W 094°45'3 3.8
2018-May-24 07:43N 29°26' W 094°42'1 5.1
2018-May-24 07:27N 29°27' W 094°41'2 4.5
2018-May-24 06:57N 29°28' W 094°39'2 4.4
2018-May-24 06:30N 29°29' W 094°37'3 4.5
2018-May-24 05:53N 29°30' W 094°34'2 4.4
2018-May-24 05:24N 29°31' W 094°32'5 3.8
2018-May-24 04:04N 29°34' W 094°27'1 4.1
2018-May-24 03:43N 29°34' W 094°25'2 4.0
2018-May-24 03:16N 29°36' W 094°25'1 3.3
2018-May-24 02:56N 29°36' W 094°23'2 4.0
2018-May-24 02:30N 29°37' W 094°22'2 4.0
2018-May-24 01:58N 29°38' W 094°19'2 4.3
2018-May-24 01:30N 29°38' W 094°17'2 4.2
2018-May-24 01:00N 29°39' W 094°15'2 4.4
2018-May-24 00:30N 29°40' W 094°13'2 4.5
2018-May-24 00:00N 29°41' W 094°11'2 4.2
2018-May-23 23:30N 29°42' W 094°08'2 4.7
2018-May-23 23:00N 29°44' W 094°06'2 4.7
2018-May-23 22:30N 29°45' W 094°04'2 3.9
2018-May-23 22:00N 29°46' W 094°02'2 4.9
2018-May-23 21:30N 29°48' W 094°00'2 3.7
2018-May-23 21:00N 29°49' W 093°59'0 0.0
2018-May-23 20:30N 29°49' W 093°59'0 0.3
2018-May-23 20:00N 29°49' W 093°59'0 0.2
2018-May-23 19:30N 29°49' W 093°59'0 0.3
2018-May-23 19:00N 29°49' W 093°59'0 0.9
2018-May-23 18:30N 29°49' W 093°58'3 5.6
2018-May-23 18:00N 29°52' W 093°56'3 5.9
2018-May-23 17:30N 29°54' W 093°54'2 4.8
2018-May-23 17:00N 29°56' W 093°52'2 4.9
2018-May-23 16:30N 29°58' W 093°51'2 3.7
2018-May-23 16:00N 29°59' W 093°49'2 4.0
2018-May-23 15:30N 29°60' W 093°47'1 3.0
2018-May-23 15:00N 30°01' W 093°46'0 0.0
2018-May-23 14:30N 30°01' W 093°46'0 0.0
2018-May-23 14:00N 30°01' W 093°46'0 0.0
2018-May-23 13:30N 30°01' W 093°46'1 1.2
2018-May-23 13:00N 30°01' W 093°45'1 2.5
2018-May-23 12:30N 30°02' W 093°44'2 4.2
2018-May-23 12:00N 30°03' W 093°43'2 2.9
2018-May-23 11:29N 30°04' W 093°41'1 2.3
2018-May-23 10:55N 30°04' W 093°39'1 2.8
2018-May-23 10:30N 30°04' W 093°38'1 2.7
2018-May-23 10:00N 30°04' W 093°37'1 2.3
2018-May-23 09:30N 30°04' W 093°35'1 2.2
2018-May-23 08:59N 30°04' W 093°34'1 2.1
2018-May-23 08:30N 30°04' W 093°33'1 2.4
2018-May-23 08:00N 30°04' W 093°31'1 2.2
2018-May-23 07:30N 30°04' W 093°30'1 2.5
2018-May-23 07:00N 30°04' W 093°29'1 2.2
2018-May-23 06:30N 30°04' W 093°27'1 2.4
2018-May-23 06:00N 30°04' W 093°26'1 2.3
2018-May-23 05:30N 30°04' W 093°25'1 2.4
2018-May-23 05:00N 30°04' W 093°23'1 2.5
2018-May-23 04:30N 30°04' W 093°22'1 2.8
2018-May-23 03:59N 30°04' W 093°20'2 3.4
2018-May-23 03:30N 30°06' W 093°19'1 2.4
2018-May-23 03:00N 30°05' W 093°18'1 1.2
2018-May-23 02:30N 30°05' W 093°17'1 1.6
2018-May-23 02:00N 30°05' W 093°17'1 1.8
2018-May-23 01:30N 30°04' W 093°16'0 0.1
2018-May-23 01:00N 30°04' W 093°16'0 0.0
2018-May-23 00:30N 30°04' W 093°16'0 0.0
2018-May-23 00:00N 30°04' W 093°16'0 0.0
2018-May-22 23:30N 30°04' W 093°16'0 0.0
2018-May-22 23:00N 30°04' W 093°16'0 0.0
2018-May-22 22:30N 30°04' W 093°16'0 0.0
2018-May-22 22:00N 30°04' W 093°16'0 0.0
2018-May-22 21:30N 30°04' W 093°16'0 0.0
2018-May-22 21:00N 30°04' W 093°16'0 0.0
2018-May-22 20:30N 30°04' W 093°16'0 0.0
2018-May-22 20:00N 30°04' W 093°16'0 0.0
2018-May-22 19:30N 30°04' W 093°16'0 0.0
2018-May-22 19:00N 30°04' W 093°16'0 0.0
2018-May-22 18:30N 30°04' W 093°16'0 0.0
2018-May-22 18:00N 30°04' W 093°16'0 0.0
2018-May-22 17:30N 30°04' W 093°16'0 0.0
2018-May-22 17:00N 30°04' W 093°16'0 0.0
2018-May-22 16:30N 30°04' W 093°16'0 0.0
2018-May-22 16:00N 30°04' W 093°16'0 0.0
2018-May-22 15:30N 30°04' W 093°16'0 0.0
2018-May-22 15:00N 30°04' W 093°16'0 0.0
2018-May-22 14:30N 30°04' W 093°16'0 0.0
2018-May-22 14:00N 30°04' W 093°16'0 0.0
2018-May-22 13:30N 30°04' W 093°16'0 0.0
2018-May-22 13:00N 30°04' W 093°16'0 0.0
2018-May-22 12:30N 30°04' W 093°16'0 0.1
2018-May-22 12:00N 30°04' W 093°16'1 1.8
2018-May-22 11:30N 30°03' W 093°16'2 3.3
2018-May-22 11:00N 30°02' W 093°15'0 0.0
2018-May-22 10:30N 30°02' W 093°15'0 0.0
2018-May-22 10:00N 30°02' W 093°15'0 0.0
2018-May-22 09:30N 30°02' W 093°15'0 0.0
2018-May-22 09:00N 30°02' W 093°15'0 0.0
2018-May-22 08:30N 30°02' W 093°15'0 0.0
2018-May-22 07:58N 30°02' W 093°15'0 0.0
2018-May-22 07:30N 30°02' W 093°15'1 1.2
2018-May-22 07:00N 30°01' W 093°14'2 3.4
2018-May-22 06:30N 29°60' W 093°13'2 3.5
2018-May-22 06:00N 29°59' W 093°12'2 3.1
2018-May-22 05:30N 29°57' W 093°11'2 3.4
2018-May-22 05:00N 29°56' W 093°09'1 1.9
2018-May-22 04:30N 29°56' W 093°08'1 1.6
2018-May-22 04:00N 29°56' W 093°07'1 2.9
2018-May-22 03:30N 29°56' W 093°06'2 3.1
2018-May-22 02:59N 29°56' W 093°04'  
2018-May-18 10:11N 30°24' W 091°13'0 0.2
2018-May-18 10:00N 30°24' W 091°13'0 0.1
2018-May-18 09:30N 30°24' W 091°13'0 0.0
2018-May-18 09:00N 30°24' W 091°13'  
2018-May-15 14:32N 29°49' W 092°17'0 3.6
2018-May-15 14:30N 29°49' W 092°17'2 3.8
2018-May-15 14:00N 29°50' W 092°19'2 3.9
2018-May-15 13:23N 29°51' W 092°21'1 2.6
2018-May-15 13:00N 29°52' W 092°22'2 3.4
2018-May-15 12:30N 29°53' W 092°23'2 4.2
2018-May-15 11:58N 29°53' W 092°26'2 4.2
2018-May-15 11:30N 29°54' W 092°28'2 4.1
2018-May-15 11:00N 29°54' W 092°30'2 3.9
2018-May-15 10:30N 29°54' W 092°33'2 4.1
2018-May-15 10:00N 29°55' W 092°35'2 4.4
2018-May-15 09:30N 29°55' W 092°37'2 3.6
2018-May-15 09:00N 29°56' W 092°39'2 4.1
2018-May-15 08:30N 29°57' W 092°42'2 4.0
2018-May-15 08:00N 29°58' W 092°44'2 3.8
2018-May-15 07:30N 29°58' W 092°46'2 4.2
2018-May-15 07:00N 29°58' W 092°48'1 2.0
2018-May-15 06:30N 29°58' W 092°49'1 2.7
2018-May-15 06:00N 29°58' W 092°51'2 3.5
2018-May-15 05:30N 29°57' W 092°53'2 3.8
2018-May-15 05:00N 29°56' W 092°55'2 3.7
2018-May-15 04:30N 29°56' W 092°57'2 3.8
2018-May-15 04:00N 29°56' W 092°59'2 4.1
2018-May-15 03:30N 29°56' W 093°01'2 4.0
2018-May-15 03:00N 29°56' W 093°04'  
Track history (hours):
 
Tides and Currents Weather Stations Pressure Air Temp Water Temp Dewpoint Dewpoint Depression Visibility Wind Speed Wind Dir Waves Ship Positions

Kieffer E Bailey

Owner: Marquette Transportation Company Gulf-Inland, LLC, Jefferson, LA. More information available from US FCC via Universal Licensing System and Coast Guard Vessel Documentation Center.

Last reported at 2018-May-25 02:59 UTC. Time now 2018-May-25 06:41 UTC.
Position N 28°54' W 095°25'.

Length 25 m; draft 2.9 m.

Type: Tow > 200 m length. MMSI: 367619240.

Date/timePositionNaut miles runAvg speedWind from/ knotsBaromVisibWave heightAir tempDewpointWater temp
2018-May-25 02:59N 28°54' W 095°25'0 0.2
2018-May-25 02:30N 28°54' W 095°25'0 0.0
2018-May-25 01:27N 28°54' W 095°25'0 0.1
2018-May-25 00:55N 28°54' W 095°24'0 0.0
2018-May-25 00:28N 28°54' W 095°24'1 2.0
2018-May-24 23:47N 28°54' W 095°23'1 2.3
2018-May-24 23:29N 28°54' W 095°22'2 3.1
2018-May-24 22:59N 28°54' W 095°24'2 3.3
2018-May-24 22:30N 28°54' W 095°22'2 3.5
2018-May-24 21:56N 28°54' W 095°24'1 1.6
2018-May-24 21:27N 28°54' W 095°24'0 0.4
2018-May-24 20:52N 28°54' W 095°23'1 2.3
2018-May-24 20:27N 28°54' W 095°24'2 4.5
2018-May-24 20:00N 28°54' W 095°22'0 0.1
2018-May-24 19:30N 28°54' W 095°22'0 0.0
2018-May-24 19:00N 28°54' W 095°22'1 2.4
2018-May-24 18:30N 28°55' W 095°21'2 4.7
2018-May-24 18:00N 28°56' W 095°19'2 4.4
2018-May-24 17:30N 28°58' W 095°17'2 4.0
2018-May-24 17:00N 28°59' W 095°16'2 4.6
2018-May-24 16:30N 29°01' W 095°14'2 4.3
2018-May-24 16:00N 29°03' W 095°13'2 4.5
2018-May-24 15:30N 29°05' W 095°12'2 4.6
2018-May-24 15:00N 29°07' W 095°11'1 2.9
2018-May-24 14:30N 29°08' W 095°10'2 3.5
2018-May-24 14:00N 29°09' W 095°08'2 4.8
2018-May-24 13:30N 29°11' W 095°06'21 4.7
2018-May-24 09:00N 29°23' W 094°46'2 3.0
2018-May-24 08:30N 29°24' W 094°45'3 3.8
2018-May-24 07:43N 29°26' W 094°42'1 5.1
2018-May-24 07:27N 29°27' W 094°41'2 4.5
2018-May-24 06:57N 29°28' W 094°39'2 4.4
2018-May-24 06:30N 29°29' W 094°37'3 4.5
2018-May-24 05:53N 29°30' W 094°34'2 4.4
2018-May-24 05:24N 29°31' W 094°32'5 3.8
2018-May-24 04:04N 29°34' W 094°27'1 4.1
2018-May-24 03:43N 29°34' W 094°25'2 4.0
2018-May-24 03:16N 29°36' W 094°25'1 3.3
2018-May-24 02:56N 29°36' W 094°23'2 4.0
2018-May-24 02:30N 29°37' W 094°22'2 4.0
2018-May-24 01:58N 29°38' W 094°19'2 4.3
2018-May-24 01:30N 29°38' W 094°17'2 4.2
2018-May-24 01:00N 29°39' W 094°15'2 4.4
2018-May-24 00:30N 29°40' W 094°13'2 4.5
2018-May-24 00:00N 29°41' W 094°11'2 4.2
2018-May-23 23:30N 29°42' W 094°08'2 4.7
2018-May-23 23:00N 29°44' W 094°06'2 4.7
2018-May-23 22:30N 29°45' W 094°04'2 3.9
2018-May-23 22:00N 29°46' W 094°02'2 4.9
2018-May-23 21:30N 29°48' W 094°00'2 3.7
2018-May-23 21:00N 29°49' W 093°59'0 0.0
2018-May-23 20:30N 29°49' W 093°59'0 0.3
2018-May-23 20:00N 29°49' W 093°59'0 0.2
2018-May-23 19:30N 29°49' W 093°59'0 0.3
2018-May-23 19:00N 29°49' W 093°59'0 0.9
2018-May-23 18:30N 29°49' W 093°58'3 5.6
2018-May-23 18:00N 29°52' W 093°56'3 5.9
2018-May-23 17:30N 29°54' W 093°54'2 4.8
2018-May-23 17:00N 29°56' W 093°52'2 4.9
2018-May-23 16:30N 29°58' W 093°51'2 3.7
2018-May-23 16:00N 29°59' W 093°49'2 4.0
2018-May-23 15:30N 29°60' W 093°47'1 3.0
2018-May-23 15:00N 30°01' W 093°46'0 0.0
2018-May-23 14:30N 30°01' W 093°46'0 0.0
2018-May-23 14:00N 30°01' W 093°46'0 0.0
2018-May-23 13:30N 30°01' W 093°46'1 1.2
2018-May-23 13:00N 30°01' W 093°45'1 2.5
2018-May-23 12:30N 30°02' W 093°44'2 4.2
2018-May-23 12:00N 30°03' W 093°43'2 2.9
2018-May-23 11:29N 30°04' W 093°41'1 2.3
2018-May-23 10:55N 30°04' W 093°39'1 2.8
2018-May-23 10:30N 30°04' W 093°38'1 2.7
2018-May-23 10:00N 30°04' W 093°37'1 2.3
2018-May-23 09:30N 30°04' W 093°35'1 2.2
2018-May-23 08:59N 30°04' W 093°34'1 2.1
2018-May-23 08:30N 30°04' W 093°33'1 2.4
2018-May-23 08:00N 30°04' W 093°31'1 2.2
2018-May-23 07:30N 30°04' W 093°30'1 2.5
2018-May-23 07:00N 30°04' W 093°29'1 2.2
2018-May-23 06:30N 30°04' W 093°27'1 2.4
2018-May-23 06:00N 30°04' W 093°26'1 2.3
2018-May-23 05:30N 30°04' W 093°25'1 2.4
2018-May-23 05:00N 30°04' W 093°23'1 2.5
2018-May-23 04:30N 30°04' W 093°22'1 2.8
2018-May-23 03:59N 30°04' W 093°20'2 3.4
2018-May-23 03:30N 30°06' W 093°19'1 2.4
2018-May-23 03:00N 30°05' W 093°18'1 1.2
2018-May-23 02:30N 30°05' W 093°17'1 1.6
2018-May-23 02:00N 30°05' W 093°17'1 1.8
2018-May-23 01:30N 30°04' W 093°16'0 0.1
2018-May-23 01:00N 30°04' W 093°16'0 0.0
2018-May-23 00:30N 30°04' W 093°16'0 0.0
2018-May-23 00:00N 30°04' W 093°16'0 0.0
2018-May-22 23:30N 30°04' W 093°16'0 0.0
2018-May-22 23:00N 30°04' W 093°16'0 0.0
2018-May-22 22:30N 30°04' W 093°16'0 0.0
2018-May-22 22:00N 30°04' W 093°16'0 0.0
2018-May-22 21:30N 30°04' W 093°16'0 0.0
2018-May-22 21:00N 30°04' W 093°16'0 0.0
2018-May-22 20:30N 30°04' W 093°16'0 0.0
2018-May-22 20:00N 30°04' W 093°16'0 0.0
2018-May-22 19:30N 30°04' W 093°16'0 0.0
2018-May-22 19:00N 30°04' W 093°16'0 0.0
2018-May-22 18:30N 30°04' W 093°16'0 0.0
2018-May-22 18:00N 30°04' W 093°16'0 0.0
2018-May-22 17:30N 30°04' W 093°16'0 0.0
2018-May-22 17:00N 30°04' W 093°16'0 0.0
2018-May-22 16:30N 30°04' W 093°16'0 0.0
2018-May-22 16:00N 30°04' W 093°16'0 0.0
2018-May-22 15:30N 30°04' W 093°16'0 0.0
2018-May-22 15:00N 30°04' W 093°16'0 0.0
2018-May-22 14:30N 30°04' W 093°16'0 0.0
2018-May-22 14:00N 30°04' W 093°16'0 0.0
2018-May-22 13:30N 30°04' W 093°16'0 0.0
2018-May-22 13:00N 30°04' W 093°16'0 0.0
2018-May-22 12:30N 30°04' W 093°16'0 0.1
2018-May-22 12:00N 30°04' W 093°16'1 1.8
2018-May-22 11:30N 30°03' W 093°16'2 3.3
2018-May-22 11:00N 30°02' W 093°15'0 0.0
2018-May-22 10:30N 30°02' W 093°15'0 0.0
2018-May-22 10:00N 30°02' W 093°15'0 0.0
2018-May-22 09:30N 30°02' W 093°15'0 0.0
2018-May-22 09:00N 30°02' W 093°15'0 0.0
2018-May-22 08:30N 30°02' W 093°15'0 0.0
2018-May-22 07:58N 30°02' W 093°15'0 0.0
2018-May-22 07:30N 30°02' W 093°15'1 1.2
2018-May-22 07:00N 30°01' W 093°14'2 3.4
2018-May-22 06:30N 29°60' W 093°13'2 3.5
2018-May-22 06:00N 29°59' W 093°12'2 3.1
2018-May-22 05:30N 29°57' W 093°11'2 3.4
2018-May-22 05:00N 29°56' W 093°09'1 1.9
2018-May-22 04:30N 29°56' W 093°08'1 1.6
2018-May-22 04:00N 29°56' W 093°07'1 2.9
2018-May-22 03:30N 29°56' W 093°06'2 3.1
2018-May-22 02:59N 29°56' W 093°04'  
2018-May-18 10:11N 30°24' W 091°13'0 0.2
2018-May-18 10:00N 30°24' W 091°13'0 0.1
2018-May-18 09:30N 30°24' W 091°13'0 0.0
2018-May-18 09:00N 30°24' W 091°13'  
2018-May-15 14:32N 29°49' W 092°17'0 3.6
2018-May-15 14:30N 29°49' W 092°17'2 3.8
2018-May-15 14:00N 29°50' W 092°19'2 3.9
2018-May-15 13:23N 29°51' W 092°21'1 2.6
2018-May-15 13:00N 29°52' W 092°22'2 3.4
2018-May-15 12:30N 29°53' W 092°23'2 4.2
2018-May-15 11:58N 29°53' W 092°26'2 4.2
2018-May-15 11:30N 29°54' W 092°28'2 4.1
2018-May-15 11:00N 29°54' W 092°30'2 3.9
2018-May-15 10:30N 29°54' W 092°33'2 4.1
2018-May-15 10:00N 29°55' W 092°35'2 4.4
2018-May-15 09:30N 29°55' W 092°37'2 3.6
2018-May-15 09:00N 29°56' W 092°39'2 4.1
2018-May-15 08:30N 29°57' W 092°42'2 4.0
2018-May-15 08:00N 29°58' W 092°44'2 3.8
2018-May-15 07:30N 29°58' W 092°46'2 4.2
2018-May-15 07:00N 29°58' W 092°48'1 2.0
2018-May-15 06:30N 29°58' W 092°49'1 2.7
2018-May-15 06:00N 29°58' W 092°51'2 3.5
2018-May-15 05:30N 29°57' W 092°53'2 3.8
2018-May-15 05:00N 29°56' W 092°55'2 3.7
2018-May-15 04:30N 29°56' W 092°57'2 3.8
2018-May-15 04:00N 29°56' W 092°59'2 4.1
2018-May-15 03:30N 29°56' W 093°01'2 4.0
2018-May-15 03:00N 29°56' W 093°04'  

Dump ship's entire track history